sensor_id;sensor_type;location;lat;lon;timestamp;pressure;altitude;pressure_sealevel;temperature;humidity
10261;BME280;5175;42.606;23.388;2022-12-07T00:00:36;93727.06;;;5.20;100.00
10261;BME280;5175;42.606;23.388;2022-12-07T00:03:03;93729.22;;;5.23;100.00
10261;BME280;5175;42.606;23.388;2022-12-07T00:05:30;93731.78;;;5.18;100.00
10261;BME280;5175;42.606;23.388;2022-12-07T00:07:57;93732.66;;;5.24;100.00
10261;BME280;5175;42.606;23.388;2022-12-07T00:10:25;93733.16;;;5.21;100.00
10261;BME280;5175;42.606;23.388;2022-12-07T00:12:51;93729.31;;;5.12;100.00
10261;BME280;5175;42.606;23.388;2022-12-07T00:15:18;93729.81;;;5.08;100.00
10261;BME280;5175;42.606;23.388;2022-12-07T00:17:45;93727.50;;;4.90;100.00
10261;BME280;5175;42.606;23.388;2022-12-07T00:20:12;93724.75;;;4.85;100.00
10261;BME280;5175;42.606;23.388;2022-12-07T00:22:38;93725.00;;;4.84;100.00
10261;BME280;5175;42.606;23.388;2022-12-07T00:25:06;93722.22;;;4.74;100.00
10261;BME280;5175;42.606;23.388;2022-12-07T00:27:34;93714.91;;;4.81;100.00
10261;BME280;5175;42.606;23.388;2022-12-07T00:30:01;93691.69;;;4.61;100.00
10261;BME280;5175;42.606;23.388;2022-12-07T00:32:27;93705.81;;;4.72;100.00
10261;BME280;5175;42.606;23.388;2022-12-07T00:34:54;93697.09;;;4.71;100.00
10261;BME280;5175;42.606;23.388;2022-12-07T00:37:21;93719.31;;;4.92;100.00
10261;BME280;5175;42.606;23.388;2022-12-07T00:39:48;93714.13;;;4.80;100.00
10261;BME280;5175;42.606;23.388;2022-12-07T00:42:14;93722.19;;;4.90;100.00
10261;BME280;5175;42.606;23.388;2022-12-07T00:44:43;93711.03;;;4.67;100.00
10261;BME280;5175;42.606;23.388;2022-12-07T00:47:09;93710.03;;;4.73;100.00
10261;BME280;5175;42.606;23.388;2022-12-07T00:49:36;93706.41;;;4.57;100.00
10261;BME280;5175;42.606;23.388;2022-12-07T00:52:03;93704.94;;;4.66;100.00
10261;BME280;5175;42.606;23.388;2022-12-07T00:54:30;93710.97;;;4.62;100.00
10261;BME280;5175;42.606;23.388;2022-12-07T00:56:57;93700.69;;;4.65;100.00
10261;BME280;5175;42.606;23.388;2022-12-07T00:59:23;93691.19;;;4.64;100.00
10261;BME280;5175;42.606;23.388;2022-12-07T01:01:52;93705.03;;;4.71;100.00
10261;BME280;5175;42.606;23.388;2022-12-07T01:04:18;93697.97;;;4.77;100.00
10261;BME280;5175;42.606;23.388;2022-12-07T01:06:45;93706.19;;;4.80;100.00
10261;BME280;5175;42.606;23.388;2022-12-07T01:09:12;93714.88;;;4.97;100.00
10261;BME280;5175;42.606;23.388;2022-12-07T01:11:39;93699.72;;;4.71;100.00
10261;BME280;5175;42.606;23.388;2022-12-07T01:14:05;93699.06;;;4.81;100.00
10261;BME280;5175;42.606;23.388;2022-12-07T01:16:33;93709.09;;;4.79;100.00
10261;BME280;5175;42.606;23.388;2022-12-07T01:19:01;93707.78;;;4.81;100.00
10261;BME280;5175;42.606;23.388;2022-12-07T01:21:32;93705.63;;;4.78;100.00
10261;BME280;5175;42.606;23.388;2022-12-07T01:24:00;93684.88;;;4.87;100.00
10261;BME280;5175;42.606;23.388;2022-12-07T01:26:27;93697.84;;;4.88;100.00
10261;BME280;5175;42.606;23.388;2022-12-07T01:28:54;93691.69;;;4.83;100.00
10261;BME280;5175;42.606;23.388;2022-12-07T01:31:25;93673.75;;;4.85;100.00
10261;BME280;5175;42.606;23.388;2022-12-07T01:33:54;93692.59;;;4.93;100.00
10261;BME280;5175;42.606;23.388;2022-12-07T01:36:24;93683.59;;;4.89;100.00
10261;BME280;5175;42.606;23.388;2022-12-07T01:38:55;93692.75;;;4.82;100.00
10261;BME280;5175;42.606;23.388;2022-12-07T01:41:24;93687.63;;;4.75;100.00
10261;BME280;5175;42.606;23.388;2022-12-07T01:44:14;93694.84;;;4.80;100.00
10261;BME280;5175;42.606;23.388;2022-12-07T01:46:42;93682.53;;;4.69;100.00
10261;BME280;5175;42.606;23.388;2022-12-07T01:49:12;93679.47;;;4.77;100.00
10261;BME280;5175;42.606;23.388;2022-12-07T01:51:43;93683.81;;;4.66;100.00
10261;BME280;5175;42.606;23.388;2022-12-07T01:54:12;93690.03;;;4.77;100.00
10261;BME280;5175;42.606;23.388;2022-12-07T01:56:45;93679.81;;;4.85;100.00
10261;BME280;5175;42.606;23.388;2022-12-07T01:59:15;93612.72;;;4.43;100.00
10261;BME280;5175;42.606;23.388;2022-12-07T02:01:43;93677.09;;;4.59;100.00
10261;BME280;5175;42.606;23.388;2022-12-07T02:04:11;93674.28;;;4.65;100.00
10261;BME280;5175;42.606;23.388;2022-12-07T02:06:38;93672.38;;;4.61;100.00
10261;BME280;5175;42.606;23.388;2022-12-07T02:09:07;93660.59;;;4.30;100.00
10261;BME280;5175;42.606;23.388;2022-12-07T02:11:34;93667.28;;;4.54;100.00
10261;BME280;5175;42.606;23.388;2022-12-07T02:14:01;93658.81;;;4.35;100.00
10261;BME280;5175;42.606;23.388;2022-12-07T02:16:34;93668.38;;;4.36;100.00
10261;BME280;5175;42.606;23.388;2022-12-07T02:19:27;93667.63;;;4.41;100.00
10261;BME280;5175;42.606;23.388;2022-12-07T02:22:18;93663.94;;;4.42;100.00
10261;BME280;5175;42.606;23.388;2022-12-07T02:24:54;93659.78;;;4.46;100.00
10261;BME280;5175;42.606;23.388;2022-12-07T02:27:33;93668.63;;;4.57;100.00
10261;BME280;5175;42.606;23.388;2022-12-07T02:30:06;93678.84;;;4.70;100.00
10261;BME280;5175;42.606;23.388;2022-12-07T02:32:42;93675.97;;;4.55;100.00
10261;BME280;5175;42.606;23.388;2022-12-07T02:35:15;93669.41;;;4.57;100.00
10261;BME280;5175;42.606;23.388;2022-12-07T02:37:51;93679.13;;;4.52;100.00
10261;BME280;5175;42.606;23.388;2022-12-07T02:40:23;93653.88;;;4.22;100.00
10261;BME280;5175;42.606;23.388;2022-12-07T02:42:55;93648.59;;;4.06;100.00
10261;BME280;5175;42.606;23.388;2022-12-07T02:45:27;93649.63;;;4.21;100.00
10261;BME280;5175;42.606;23.388;2022-12-07T02:47:58;93649.41;;;4.23;100.00
10261;BME280;5175;42.606;23.388;2022-12-07T02:50:26;93653.22;;;4.32;100.00
10261;BME280;5175;42.606;23.388;2022-12-07T02:52:54;93648.25;;;4.35;100.00
10261;BME280;5175;42.606;23.388;2022-12-07T02:55:25;93619.25;;;4.19;100.00
10261;BME280;5175;42.606;23.388;2022-12-07T02:58:05;93654.66;;;4.39;100.00
10261;BME280;5175;42.606;23.388;2022-12-07T03:00:39;93660.31;;;4.48;100.00
10261;BME280;5175;42.606;23.388;2022-12-07T03:03:14;93651.44;;;4.54;100.00
10261;BME280;5175;42.606;23.388;2022-12-07T03:05:58;93644.94;;;4.62;100.00
10261;BME280;5175;42.606;23.388;2022-12-07T03:08:35;93641.28;;;4.46;100.00
10261;BME280;5175;42.606;23.388;2022-12-07T03:11:06;93635.53;;;4.32;100.00
10261;BME280;5175;42.606;23.388;2022-12-07T03:13:39;93641.50;;;4.23;100.00
10261;BME280;5175;42.606;23.388;2022-12-07T03:16:14;93635.25;;;4.12;100.00
10261;BME280;5175;42.606;23.388;2022-12-07T03:18:45;93637.25;;;4.22;100.00
10261;BME280;5175;42.606;23.388;2022-12-07T03:21:16;93643.41;;;4.27;100.00
10261;BME280;5175;42.606;23.388;2022-12-07T03:23:48;93639.94;;;4.27;100.00
10261;BME280;5175;42.606;23.388;2022-12-07T03:26:17;93625.72;;;4.28;100.00
10261;BME280;5175;42.606;23.388;2022-12-07T03:28:51;93635.38;;;4.39;100.00
10261;BME280;5175;42.606;23.388;2022-12-07T03:31:22;93632.56;;;4.46;100.00
10261;BME280;5175;42.606;23.388;2022-12-07T03:33:54;93627.88;;;4.31;100.00
10261;BME280;5175;42.606;23.388;2022-12-07T03:36:26;93626.31;;;4.13;100.00
10261;BME280;5175;42.606;23.388;2022-12-07T03:39:00;93619.00;;;4.20;100.00
10261;BME280;5175;42.606;23.388;2022-12-07T03:41:31;93626.78;;;4.10;100.00
10261;BME280;5175;42.606;23.388;2022-12-07T03:44:00;93615.97;;;4.12;100.00
10261;BME280;5175;42.606;23.388;2022-12-07T03:46:35;93626.94;;;4.20;100.00
10261;BME280;5175;42.606;23.388;2022-12-07T03:49:08;93629.94;;;4.29;100.00
10261;BME280;5175;42.606;23.388;2022-12-07T03:51:40;93632.91;;;4.32;100.00
10261;BME280;5175;42.606;23.388;2022-12-07T03:54:11;93604.53;;;4.06;100.00
10261;BME280;5175;42.606;23.388;2022-12-07T03:56:42;93638.63;;;4.46;100.00
10261;BME280;5175;42.606;23.388;2022-12-07T03:59:11;93632.16;;;4.37;100.00
10261;BME280;5175;42.606;23.388;2022-12-07T04:01:42;93625.16;;;4.26;100.00
10261;BME280;5175;42.606;23.388;2022-12-07T04:04:09;93630.50;;;4.31;100.00
10261;BME280;5175;42.606;23.388;2022-12-07T04:06:36;93625.25;;;4.31;100.00
10261;BME280;5175;42.606;23.388;2022-12-07T04:09:03;93626.31;;;4.13;100.00
10261;BME280;5175;42.606;23.388;2022-12-07T04:11:30;93620.72;;;4.10;100.00
10261;BME280;5175;42.606;23.388;2022-12-07T04:13:57;93621.25;;;4.12;100.00
10261;BME280;5175;42.606;23.388;2022-12-07T04:16:42;93624.63;;;3.91;100.00
10261;BME280;5175;42.606;23.388;2022-12-07T04:19:09;93623.28;;;3.88;100.00
10261;BME280;5175;42.606;23.388;2022-12-07T04:21:36;93622.72;;;4.03;100.00
10261;BME280;5175;42.606;23.388;2022-12-07T04:24:03;93625.66;;;4.23;100.00
10261;BME280;5175;42.606;23.388;2022-12-07T04:26:30;93619.69;;;4.32;100.00
10261;BME280;5175;42.606;23.388;2022-12-07T04:28:57;93621.44;;;4.43;100.00
10261;BME280;5175;42.606;23.388;2022-12-07T04:31:24;93603.38;;;3.97;100.00
10261;BME280;5175;42.606;23.388;2022-12-07T04:33:52;93625.16;;;4.26;100.00
10261;BME280;5175;42.606;23.388;2022-12-07T04:36:19;93626.38;;;4.18;100.00
10261;BME280;5175;42.606;23.388;2022-12-07T04:38:46;93628.50;;;4.21;100.00
10261;BME280;5175;42.606;23.388;2022-12-07T04:41:13;93640.13;;;4.20;100.00
10261;BME280;5175;42.606;23.388;2022-12-07T04:43:40;93632.09;;;4.32;100.00
10261;BME280;5175;42.606;23.388;2022-12-07T04:46:07;93629.09;;;4.23;100.00
10261;BME280;5175;42.606;23.388;2022-12-07T04:48:33;93631.72;;;4.23;100.00
10261;BME280;5175;42.606;23.388;2022-12-07T04:51:02;93639.22;;;4.31;100.00
10261;BME280;5175;42.606;23.388;2022-12-07T04:53:29;93631.88;;;4.17;100.00
10261;BME280;5175;42.606;23.388;2022-12-07T04:55:55;93634.84;;;4.20;100.00
10261;BME280;5175;42.606;23.388;2022-12-07T04:58:22;93634.47;;;4.12;100.00
10261;BME280;5175;42.606;23.388;2022-12-07T05:00:49;93628.94;;;4.13;100.00
10261;BME280;5175;42.606;23.388;2022-12-07T05:03:16;93632.69;;;4.17;100.00
10261;BME280;5175;42.606;23.388;2022-12-07T05:05:42;93579.06;;;3.95;100.00
10261;BME280;5175;42.606;23.388;2022-12-07T05:08:11;93618.63;;;4.12;100.00
10261;BME280;5175;42.606;23.388;2022-12-07T05:10:37;93636.22;;;4.23;100.00
10261;BME280;5175;42.606;23.388;2022-12-07T05:13:06;93638.53;;;4.19;100.00
10261;BME280;5175;42.606;23.388;2022-12-07T05:15:33;93627.59;;;4.11;100.00
10261;BME280;5175;42.606;23.388;2022-12-07T05:18:00;93629.19;;;4.12;100.00
10261;BME280;5175;42.606;23.388;2022-12-07T05:20:28;93625.91;;;4.05;100.00
10261;BME280;5175;42.606;23.388;2022-12-07T05:22:55;93629.31;;;4.22;100.00
10261;BME280;5175;42.606;23.388;2022-12-07T05:25:25;93637.97;;;4.17;100.00
10261;BME280;5175;42.606;23.388;2022-12-07T05:27:52;93632.38;;;4.14;100.00
10261;BME280;5175;42.606;23.388;2022-12-07T05:30:18;93641.56;;;4.28;100.00
10261;BME280;5175;42.606;23.388;2022-12-07T05:32:45;93575.41;;;3.79;100.00
10261;BME280;5175;42.606;23.388;2022-12-07T05:35:12;93637.97;;;4.17;100.00
10261;BME280;5175;42.606;23.388;2022-12-07T05:37:39;93644.63;;;4.03;100.00
10261;BME280;5175;42.606;23.388;2022-12-07T05:40:07;93628.41;;;3.95;100.00
10261;BME280;5175;42.606;23.388;2022-12-07T05:42:35;93643.09;;;4.07;100.00
10261;BME280;5175;42.606;23.388;2022-12-07T05:45:01;93642.31;;;4.07;100.00
10261;BME280;5175;42.606;23.388;2022-12-07T05:47:28;93637.81;;;4.07;100.00
10261;BME280;5175;42.606;23.388;2022-12-07T05:49:55;93633.16;;;4.14;100.00
10261;BME280;5175;42.606;23.388;2022-12-07T05:52:22;93624.63;;;4.07;100.00
10261;BME280;5175;42.606;23.388;2022-12-07T05:54:48;93622.22;;;4.06;100.00
10261;BME280;5175;42.606;23.388;2022-12-07T05:57:15;93622.53;;;4.09;100.00
10261;BME280;5175;42.606;23.388;2022-12-07T05:59:43;93625.56;;;4.18;100.00
10261;BME280;5175;42.606;23.388;2022-12-07T06:02:11;93622.19;;;4.22;100.00
10261;BME280;5175;42.606;23.388;2022-12-07T06:04:40;93620.72;;;4.31;100.00
10261;BME280;5175;42.606;23.388;2022-12-07T06:07:08;93619.88;;;4.26;100.00
10261;BME280;5175;42.606;23.388;2022-12-07T06:09:35;93623.06;;;4.28;100.00
10261;BME280;5175;42.606;23.388;2022-12-07T06:12:02;93625.78;;;4.33;100.00
10261;BME280;5175;42.606;23.388;2022-12-07T06:14:48;93620.81;;;4.36;100.00
10261;BME280;5175;42.606;23.388;2022-12-07T06:17:15;93638.25;;;4.37;100.00
10261;BME280;5175;42.606;23.388;2022-12-07T06:19:42;93631.53;;;4.47;100.00
10261;BME280;5175;42.606;23.388;2022-12-07T06:22:10;93627.88;;;4.53;100.00
10261;BME280;5175;42.606;23.388;2022-12-07T06:24:37;93626.59;;;4.55;100.00
10261;BME280;5175;42.606;23.388;2022-12-07T06:27:04;93629.16;;;4.50;100.00
10261;BME280;5175;42.606;23.388;2022-12-07T06:29:31;93643.84;;;4.41;100.00
10261;BME280;5175;42.606;23.388;2022-12-07T06:31:59;93623.88;;;4.28;100.00
10261;BME280;5175;42.606;23.388;2022-12-07T06:34:26;93631.88;;;4.33;100.00
10261;BME280;5175;42.606;23.388;2022-12-07T06:36:53;93512.97;;;3.68;100.00
10261;BME280;5175;42.606;23.388;2022-12-07T06:39:23;93638.88;;;4.44;100.00
10261;BME280;5175;42.606;23.388;2022-12-07T06:41:51;93627.47;;;4.39;100.00
10261;BME280;5175;42.606;23.388;2022-12-07T06:44:19;93642.56;;;4.65;100.00
10261;BME280;5175;42.606;23.388;2022-12-07T06:46:47;93643.75;;;4.74;100.00
10261;BME280;5175;42.606;23.388;2022-12-07T06:49:15;93642.03;;;4.63;100.00
10261;BME280;5175;42.606;23.388;2022-12-07T06:51:42;93643.50;;;4.54;100.00
10261;BME280;5175;42.606;23.388;2022-12-07T06:54:10;93645.06;;;4.72;100.00
10261;BME280;5175;42.606;23.388;2022-12-07T06:56:37;93645.28;;;4.70;100.00
10261;BME280;5175;42.606;23.388;2022-12-07T06:59:05;93638.09;;;4.66;100.00
10261;BME280;5175;42.606;23.388;2022-12-07T07:01:33;93647.63;;;4.67;100.00
10261;BME280;5175;42.606;23.388;2022-12-07T07:04:00;93652.91;;;4.88;100.00
10261;BME280;5175;42.606;23.388;2022-12-07T07:06:28;93645.22;;;4.87;100.00
10261;BME280;5175;42.606;23.388;2022-12-07T07:08:55;93642.75;;;5.02;100.00
10261;BME280;5175;42.606;23.388;2022-12-07T07:11:22;93646.59;;;4.89;100.00
10261;BME280;5175;42.606;23.388;2022-12-07T07:13:48;93643.78;;;5.01;100.00
10261;BME280;5175;42.606;23.388;2022-12-07T07:16:15;93642.69;;;5.19;100.00
10261;BME280;5175;42.606;23.388;2022-12-07T07:18:42;93639.47;;;5.17;100.00
10261;BME280;5175;42.606;23.388;2022-12-07T07:21:09;93642.75;;;5.24;100.00
10261;BME280;5175;42.606;23.388;2022-12-07T07:23:37;93645.22;;;5.35;100.00
10261;BME280;5175;42.606;23.388;2022-12-07T07:26:04;93638.94;;;5.41;100.00
10261;BME280;5175;42.606;23.388;2022-12-07T07:28:31;93641.78;;;5.61;100.00
10261;BME280;5175;42.606;23.388;2022-12-07T07:30:58;93652.09;;;5.63;100.00
10261;BME280;5175;42.606;23.388;2022-12-07T07:33:24;93646.81;;;5.63;100.00
10261;BME280;5175;42.606;23.388;2022-12-07T07:35:51;93657.25;;;5.75;100.00
10261;BME280;5175;42.606;23.388;2022-12-07T07:38:18;93662.78;;;5.73;100.00
10261;BME280;5175;42.606;23.388;2022-12-07T07:40:46;93665.81;;;5.60;100.00
10261;BME280;5175;42.606;23.388;2022-12-07T07:43:13;93660.44;;;5.50;100.00
10261;BME280;5175;42.606;23.388;2022-12-07T07:45:39;93659.91;;;5.48;100.00
10261;BME280;5175;42.606;23.388;2022-12-07T07:48:06;93639.13;;;5.35;100.00
10261;BME280;5175;42.606;23.388;2022-12-07T07:50:33;93661.16;;;5.40;100.00
10261;BME280;5175;42.606;23.388;2022-12-07T07:53:00;93660.16;;;5.46;100.00
10261;BME280;5175;42.606;23.388;2022-12-07T07:55:27;93648.72;;;5.41;100.00
10261;BME280;5175;42.606;23.388;2022-12-07T07:57:55;93656.97;;;5.44;100.00
10261;BME280;5175;42.606;23.388;2022-12-07T08:00:22;93652.22;;;5.46;100.00
10261;BME280;5175;42.606;23.388;2022-12-07T08:02:49;93653.06;;;5.52;100.00
10261;BME280;5175;42.606;23.388;2022-12-07T08:05:16;93660.69;;;5.48;100.00
10261;BME280;5175;42.606;23.388;2022-12-07T08:07:43;93642.31;;;5.37;100.00
10261;BME280;5175;42.606;23.388;2022-12-07T08:10:11;93663.63;;;5.47;100.00
10261;BME280;5175;42.606;23.388;2022-12-07T08:12:39;93661.75;;;5.47;100.00
10261;BME280;5175;42.606;23.388;2022-12-07T08:15:29;93656.00;;;5.55;100.00
10261;BME280;5175;42.606;23.388;2022-12-07T08:17:56;93653.22;;;5.67;100.00
10261;BME280;5175;42.606;23.388;2022-12-07T08:20:23;93665.34;;;5.90;100.00
10261;BME280;5175;42.606;23.388;2022-12-07T08:22:50;93653.72;;;5.96;100.00
10261;BME280;5175;42.606;23.388;2022-12-07T08:25:17;93635.94;;;5.86;100.00
10261;BME280;5175;42.606;23.388;2022-12-07T08:27:44;93654.84;;;6.00;100.00
10261;BME280;5175;42.606;23.388;2022-12-07T08:30:11;93651.97;;;6.06;100.00
10261;BME280;5175;42.606;23.388;2022-12-07T08:32:39;93643.38;;;6.26;100.00
10261;BME280;5175;42.606;23.388;2022-12-07T08:35:07;93651.19;;;6.48;100.00
10261;BME280;5175;42.606;23.388;2022-12-07T08:37:34;93655.13;;;6.40;100.00
10261;BME280;5175;42.606;23.388;2022-12-07T08:40:01;93633.41;;;6.43;100.00
10261;BME280;5175;42.606;23.388;2022-12-07T08:42:28;93646.03;;;6.26;100.00
10261;BME280;5175;42.606;23.388;2022-12-07T08:45:03;93655.16;;;6.45;100.00
10261;BME280;5175;42.606;23.388;2022-12-07T08:47:30;93652.28;;;6.52;100.00
10261;BME280;5175;42.606;23.388;2022-12-07T08:49:58;93600.13;;;6.15;100.00
10261;BME280;5175;42.606;23.388;2022-12-07T08:52:29;93654.53;;;6.33;100.00
10261;BME280;5175;42.606;23.388;2022-12-07T08:54:56;93652.22;;;6.05;100.00
10261;BME280;5175;42.606;23.388;2022-12-07T08:57:24;93638.72;;;6.06;100.00
10261;BME280;5175;42.606;23.388;2022-12-07T08:59:51;93650.53;;;6.25;100.00
10261;BME280;5175;42.606;23.388;2022-12-07T09:02:18;93648.94;;;6.29;100.00
10261;BME280;5175;42.606;23.388;2022-12-07T09:04:44;93634.38;;;6.27;100.00
10261;BME280;5175;42.606;23.388;2022-12-07T09:07:13;93635.97;;;6.28;100.00
10261;BME280;5175;42.606;23.388;2022-12-07T09:09:39;93617.59;;;6.16;100.00
10261;BME280;5175;42.606;23.388;2022-12-07T09:12:07;93624.59;;;6.32;100.00
10261;BME280;5175;42.606;23.388;2022-12-07T09:14:34;93574.69;;;6.14;100.00
10261;BME280;5175;42.606;23.388;2022-12-07T09:17:08;93616.78;;;6.58;100.00
10261;BME280;5175;42.606;23.388;2022-12-07T09:19:35;93618.94;;;6.66;100.00
10261;BME280;5175;42.606;23.388;2022-12-07T09:22:02;93619.34;;;6.94;100.00
10261;BME280;5175;42.606;23.388;2022-12-07T09:24:31;93615.41;;;7.02;100.00
10261;BME280;5175;42.606;23.388;2022-12-07T09:26:58;93611.75;;;7.18;100.00
10261;BME280;5175;42.606;23.388;2022-12-07T09:29:25;93614.94;;;7.30;100.00
10261;BME280;5175;42.606;23.388;2022-12-07T09:31:52;93617.06;;;7.28;100.00
10261;BME280;5175;42.606;23.388;2022-12-07T09:34:19;93625.34;;;7.42;100.00
10261;BME280;5175;42.606;23.388;2022-12-07T09:36:47;93609.66;;;7.45;100.00
10261;BME280;5175;42.606;23.388;2022-12-07T09:39:13;93612.31;;;7.45;100.00
10261;BME280;5175;42.606;23.388;2022-12-07T09:41:44;93606.22;;;7.50;100.00
10261;BME280;5175;42.606;23.388;2022-12-07T09:44:12;93605.19;;;7.71;100.00
10261;BME280;5175;42.606;23.388;2022-12-07T09:46:42;93593.22;;;7.64;100.00
10261;BME280;5175;42.606;23.388;2022-12-07T09:49:12;93593.22;;;7.48;100.00
10261;BME280;5175;42.606;23.388;2022-12-07T09:51:40;93593.75;;;7.45;100.00
10261;BME280;5175;42.606;23.388;2022-12-07T09:54:12;93592.19;;;7.65;100.00
10261;BME280;5175;42.606;23.388;2022-12-07T09:56:39;93581.81;;;7.63;100.00
10261;BME280;5175;42.606;23.388;2022-12-07T09:59:13;93589.00;;;7.78;100.00
10261;BME280;5175;42.606;23.388;2022-12-07T10:01:43;93582.88;;;7.57;100.00
10261;BME280;5175;42.606;23.388;2022-12-07T10:04:15;93584.75;;;7.62;100.00
10261;BME280;5175;42.606;23.388;2022-12-07T10:06:43;93586.34;;;7.78;100.00
10261;BME280;5175;42.606;23.388;2022-12-07T10:09:11;93570.94;;;7.70;100.00
10261;BME280;5175;42.606;23.388;2022-12-07T10:12:07;93570.13;;;7.74;100.00
10261;BME280;5175;42.606;23.388;2022-12-07T10:14:38;93562.44;;;7.93;100.00
10261;BME280;5175;42.606;23.388;2022-12-07T10:17:28;93557.13;;;7.93;100.00
10261;BME280;5175;42.606;23.388;2022-12-07T10:20:13;93561.88;;;8.21;100.00
10261;BME280;5175;42.606;23.388;2022-12-07T10:22:54;93551.78;;;8.28;100.00
10261;BME280;5175;42.606;23.388;2022-12-07T10:25:23;93554.69;;;8.32;100.00
10261;BME280;5175;42.606;23.388;2022-12-07T10:27:57;93563.97;;;8.44;100.00
10261;BME280;5175;42.606;23.388;2022-12-07T10:30:26;93548.47;;;8.66;100.00
10261;BME280;5175;42.606;23.388;2022-12-07T10:32:53;93558.50;;;8.85;100.00
10261;BME280;5175;42.606;23.388;2022-12-07T10:35:23;93554.19;;;8.94;100.00
10261;BME280;5175;42.606;23.388;2022-12-07T10:37:51;93542.91;;;9.12;100.00
10261;BME280;5175;42.606;23.388;2022-12-07T10:40:30;93542.25;;;8.86;100.00
10261;BME280;5175;42.606;23.388;2022-12-07T10:43:03;93542.91;;;9.12;100.00
10261;BME280;5175;42.606;23.388;2022-12-07T10:45:32;93536.19;;;9.29;100.00
10261;BME280;5175;42.606;23.388;2022-12-07T10:48:04;93531.16;;;9.23;100.00
10261;BME280;5175;42.606;23.388;2022-12-07T10:50:58;93527.41;;;9.29;100.00
10261;BME280;5175;42.606;23.388;2022-12-07T10:53:44;93528.03;;;9.11;100.00
10261;BME280;5175;42.606;23.388;2022-12-07T10:56:35;93511.63;;;8.99;100.00
10261;BME280;5175;42.606;23.388;2022-12-07T10:59:22;93514.31;;;9.32;100.00
10261;BME280;5175;42.606;23.388;2022-12-07T11:01:57;93518.78;;;9.42;100.00
10261;BME280;5175;42.606;23.388;2022-12-07T11:04:39;93507.38;;;9.36;100.00
10261;BME280;5175;42.606;23.388;2022-12-07T11:07:16;93503.84;;;9.46;100.00
10261;BME280;5175;42.606;23.388;2022-12-07T11:09:55;93504.91;;;9.45;100.00
10261;BME280;5175;42.606;23.388;2022-12-07T11:12:31;93501.13;;;9.51;100.00
10261;BME280;5175;42.606;23.388;2022-12-07T11:15:07;93429.63;;;9.06;100.00
10261;BME280;5175;42.606;23.388;2022-12-07T11:17:46;93519.44;;;9.63;100.00
10261;BME280;5175;42.606;23.388;2022-12-07T11:20:27;93502.75;;;9.52;100.00
10261;BME280;5175;42.606;23.388;2022-12-07T11:23:01;93486.59;;;9.38;100.00
10261;BME280;5175;42.606;23.388;2022-12-07T11:25:32;93495.56;;;9.48;100.00
10261;BME280;5175;42.606;23.388;2022-12-07T11:28:11;93501.91;;;9.57;100.00
10261;BME280;5175;42.606;23.388;2022-12-07T11:30:51;93495.78;;;9.56;100.00
10261;BME280;5175;42.606;23.388;2022-12-07T11:33:28;93491.00;;;9.53;100.00
10261;BME280;5175;42.606;23.388;2022-12-07T11:36:04;93477.09;;;9.61;100.00
10261;BME280;5175;42.606;23.388;2022-12-07T11:38:38;93478.09;;;9.70;100.00
10261;BME280;5175;42.606;23.388;2022-12-07T11:41:09;93482.88;;;9.68;100.00
10261;BME280;5175;42.606;23.388;2022-12-07T11:43:54;93480.69;;;9.75;100.00
10261;BME280;5175;42.606;23.388;2022-12-07T11:46:25;93405.78;;;9.24;100.00
10261;BME280;5175;42.606;23.388;2022-12-07T11:49:02;93472.16;;;9.73;100.00
10261;BME280;5175;42.606;23.388;2022-12-07T11:51:33;93461.81;;;9.72;100.00
10261;BME280;5175;42.606;23.388;2022-12-07T11:54:04;93456.41;;;9.48;100.00
10261;BME280;5175;42.606;23.388;2022-12-07T11:56:34;93454.56;;;9.49;100.00
10261;BME280;5175;42.606;23.388;2022-12-07T11:59:09;93458.28;;;9.76;100.00
10261;BME280;5175;42.606;23.388;2022-12-07T12:01:46;93463.63;;;9.76;100.00
10261;BME280;5175;42.606;23.388;2022-12-07T12:04:25;93443.50;;;9.65;100.00
10261;BME280;5175;42.606;23.388;2022-12-07T12:06:54;93444.97;;;9.76;100.00
10261;BME280;5175;42.606;23.388;2022-12-07T12:09:25;93446.03;;;10.04;100.00
10261;BME280;5175;42.606;23.388;2022-12-07T12:12:15;93440.22;;;10.26;100.00
10261;BME280;5175;42.606;23.388;2022-12-07T12:14:51;93440.84;;;10.41;100.00
10261;BME280;5175;42.606;23.388;2022-12-07T12:17:36;93442.94;;;10.44;100.00
10261;BME280;5175;42.606;23.388;2022-12-07T12:20:19;93444.78;;;10.67;100.00
10261;BME280;5175;42.606;23.388;2022-12-07T12:22:51;93433.69;;;10.79;100.00
10261;BME280;5175;42.606;23.388;2022-12-07T12:25:22;93438.69;;;10.86;100.00
10261;BME280;5175;42.606;23.388;2022-12-07T12:27:52;93440.81;;;11.02;100.00
10261;BME280;5175;42.606;23.388;2022-12-07T12:30:32;93438.31;;;10.92;100.00
10261;BME280;5175;42.606;23.388;2022-12-07T12:33:05;93425.66;;;10.79;100.00
10261;BME280;5175;42.606;23.388;2022-12-07T12:35:35;93422.66;;;10.86;100.00
10261;BME280;5175;42.606;23.388;2022-12-07T12:38:30;93411.69;;;10.68;100.00
10261;BME280;5175;42.606;23.388;2022-12-07T12:40:58;93410.50;;;10.56;100.00
10261;BME280;5175;42.606;23.388;2022-12-07T12:43:46;93407.25;;;10.40;100.00
10261;BME280;5175;42.606;23.388;2022-12-07T12:46:49;93407.84;;;10.37;100.00
10261;BME280;5175;42.606;23.388;2022-12-07T12:49:44;93392.13;;;10.12;100.00
10261;BME280;5175;42.606;23.388;2022-12-07T12:52:51;93434.44;;;10.42;100.00
10261;BME280;5175;42.606;23.388;2022-12-07T12:55:29;93423.59;;;10.34;100.00
10261;BME280;5175;42.606;23.388;2022-12-07T12:58:29;93410.22;;;10.39;100.00
10261;BME280;5175;42.606;23.388;2022-12-07T13:04:01;93395.88;;;10.35;100.00
10261;BME280;5175;42.606;23.388;2022-12-07T13:06:34;93420.56;;;10.22;100.00
10261;BME280;5175;42.606;23.388;2022-12-07T13:09:15;93408.59;;;10.38;100.00
10261;BME280;5175;42.606;23.388;2022-12-07T13:11:45;93395.97;;;10.25;100.00
10261;BME280;5175;42.606;23.388;2022-12-07T13:14:41;93401.06;;;9.97;100.00
10261;BME280;5175;42.606;23.388;2022-12-07T13:17:09;93410.16;;;10.20;100.00
10261;BME280;5175;42.606;23.388;2022-12-07T13:19:57;93412.94;;;10.34;100.00
10261;BME280;5175;42.606;23.388;2022-12-07T13:22:48;93411.59;;;10.55;100.00